Time;durP1;ratioP1;P1;durP2;ratioP2;P2;SDS_P1;SDS_P2;PMS_P1;PMS_P2;Temp;Humidity;BMP_temperature;BMP_pressure;BME280_temperature;BME280_humidity;BME280_pressure;Samples;Min_cycle;Max_cycle;Signal;HPM_P1;HPM_P2
2023/04/29 00:01:01;;;;;;;12.60;5.38;;;;;;;;;;4936631;28;101699;-83
2023/04/29 00:03:31;;;;;;;12.35;5.53;;;;;;;;;;4934929;28;98644;-83
2023/04/29 00:05:58;;;;;;;12.48;5.78;;;;;;;;;;4946283;28;99846;-84
2023/04/29 00:08:25;;;;;;;13.15;6.15;;;;;;;;;;4949414;28;100259;-84
2023/04/29 00:10:51;;;;;;;14.73;6.13;;;;;;;;;;4947539;28;98872;-85
2023/04/29 00:13:18;;;;;;;13.30;5.97;;;;;;;;;;4947921;28;99081;-84
2023/04/29 00:15:44;;;;;;;13.15;6.47;;;;;;;;;;4946238;28;99193;-84
2023/04/29 00:18:12;;;;;;;12.75;5.88;;;;;;;;;;4948817;28;98969;-84
2023/04/29 00:20:39;;;;;;;14.32;6.25;;;;;;;;;;4945392;28;103907;-85
2023/04/29 00:23:06;;;;;;;12.85;6.03;;;;;;;;;;4929924;28;98600;-81
2023/04/29 00:25:33;;;;;;;13.98;6.65;;;;;;;;;;4944141;28;99261;-81
2023/04/29 00:28:00;;;;;;;14.52;7.22;;;;;;;;;;4946336;28;99030;-80
2023/04/29 00:30:27;;;;;;;17.02;7.03;;;;;;;;;;4944566;28;99616;-80
2023/04/29 00:32:54;;;;;;;17.58;8.95;;;;;;;;;;4941891;28;99545;-80
2023/04/29 00:35:21;;;;;;;17.65;8.90;;;;;;;;;;4944977;28;99215;-81
2023/04/29 00:37:48;;;;;;;18.27;8.55;;;;;;;;;;4944256;28;98783;-81
2023/04/29 00:40:15;;;;;;;19.42;9.23;;;;;;;;;;4946502;28;99308;-79
2023/04/29 00:42:42;;;;;;;18.55;8.00;;;;;;;;;;4945774;28;99205;-79
2023/04/29 00:45:09;;;;;;;18.95;9.07;;;;;;;;;;4945083;28;100079;-79
2023/04/29 00:47:35;;;;;;;20.20;9.23;;;;;;;;;;4945931;28;98543;-79
2023/04/29 00:50:02;;;;;;;19.38;9.15;;;;;;;;;;4945540;28;98695;-79
2023/04/29 00:52:30;;;;;;;18.17;8.68;;;;;;;;;;4927688;28;98749;-79
2023/04/29 00:54:57;;;;;;;19.15;8.88;;;;;;;;;;4939477;28;103256;-79
2023/04/29 00:57:23;;;;;;;17.77;9.20;;;;;;;;;;4943890;28;98627;-80
2023/04/29 00:59:50;;;;;;;17.65;8.43;;;;;;;;;;4945592;28;98606;-80
2023/04/29 01:02:17;;;;;;;20.23;9.30;;;;;;;;;;4947610;28;99049;-79
2023/04/29 01:04:44;;;;;;;18.95;9.50;;;;;;;;;;4945515;28;99295;-79
2023/04/29 01:07:16;;;;;;;19.73;8.15;;;;;;;;;;4929091;28;101939;-79
2023/04/29 01:09:48;;;;;;;19.75;8.32;;;;;;;;;;4945947;28;98932;-79
2023/04/29 01:12:25;;;;;;;18.02;8.25;;;;;;;;;;4930774;28;100051;-79
2023/04/29 01:14:57;;;;;;;18.00;9.00;;;;;;;;;;4943142;28;101845;-80
2023/04/29 01:17:26;;;;;;;22.20;9.50;;;;;;;;;;4944118;28;98721;-80
2023/04/29 01:19:57;;;;;;;20.67;9.40;;;;;;;;;;4924463;28;101669;-80
2023/04/29 01:22:24;;;;;;;19.02;9.18;;;;;;;;;;4939273;28;101889;-80
2023/04/29 01:24:50;;;;;;;18.15;9.02;;;;;;;;;;4936757;28;98873;-80
2023/04/29 01:27:36;;;;;;;16.77;8.63;;;;;;;;;;4948734;28;100255;-81
2023/04/29 01:30:27;;;;;;;19.88;9.27;;;;;;;;;;4928559;28;99281;-82
2023/04/29 01:33:03;;;;;;;18.65;9.25;;;;;;;;;;4927209;28;106256;-82
2023/04/29 01:35:45;;;;;;;20.05;9.40;;;;;;;;;;4945233;28;100002;-82
2023/04/29 01:38:21;;;;;;;18.52;8.82;;;;;;;;;;4937742;28;98070;-82
2023/04/29 01:41:09;;;;;;;20.08;8.57;;;;;;;;;;4943054;28;102671;-81
2023/04/29 01:43:37;;;;;;;17.50;8.57;;;;;;;;;;4943376;28;101534;-82
2023/04/29 01:46:15;;;;;;;16.25;8.32;;;;;;;;;;4926144;28;99643;-82
2023/04/29 01:48:42;;;;;;;18.17;9.20;;;;;;;;;;4945181;28;104300;-81
2023/04/29 01:51:10;;;;;;;22.17;8.88;;;;;;;;;;4943456;28;98846;-82
2023/04/29 01:53:39;;;;;;;19.63;8.98;;;;;;;;;;4927324;28;101651;-82
2023/04/29 01:56:06;;;;;;;18.02;8.95;;;;;;;;;;4939857;28;102183;-82
2023/04/29 01:58:47;;;;;;;17.15;8.85;;;;;;;;;;4934957;28;98838;-81
2023/04/29 02:01:50;;;;;;;18.40;8.90;;;;;;;;;;4943846;28;101602;-82
2023/04/29 02:04:17;;;;;;;15.80;7.28;;;;;;;;;;4942279;28;100704;-81
2023/04/29 02:06:44;;;;;;;17.40;8.10;;;;;;;;;;4944154;28;98681;-82
2023/04/29 02:09:11;;;;;;;18.45;8.50;;;;;;;;;;4948157;28;98676;-81
2023/04/29 02:11:40;;;;;;;16.95;8.30;;;;;;;;;;4945812;28;101218;-80
2023/04/29 02:14:06;;;;;;;17.15;8.32;;;;;;;;;;4927440;28;101868;-80
2023/04/29 02:16:33;;;;;;;19.67;8.52;;;;;;;;;;4925649;28;101837;-80
2023/04/29 02:19:02;;;;;;;15.80;7.07;;;;;;;;;;4942931;28;98704;-79
2023/04/29 02:21:30;;;;;;;18.35;8.27;;;;;;;;;;4940461;28;102096;-80
2023/04/29 02:23:59;;;;;;;13.43;7.15;;;;;;;;;;4954940;28;101768;-79
2023/04/29 02:26:26;;;;;;;17.83;7.82;;;;;;;;;;4941756;28;99096;-79
2023/04/29 02:28:56;;;;;;;15.60;7.43;;;;;;;;;;4943196;28;102005;-79
2023/04/29 02:31:22;;;;;;;16.45;8.25;;;;;;;;;;4928717;28;101269;-79
2023/04/29 02:33:49;;;;;;;15.70;7.53;;;;;;;;;;4944514;28;98790;-80
2023/04/29 02:36:17;;;;;;;17.17;7.95;;;;;;;;;;4943004;28;99829;-80
2023/04/29 02:38:43;;;;;;;16.67;7.68;;;;;;;;;;4942385;28;98571;-81
2023/04/29 02:41:14;;;;;;;14.05;7.15;;;;;;;;;;4944250;28;100760;-81
2023/04/29 02:43:41;;;;;;;18.63;7.80;;;;;;;;;;4926514;28;101998;-80
2023/04/29 02:46:07;;;;;;;13.75;6.63;;;;;;;;;;4927513;28;99159;-81
2023/04/29 02:48:35;;;;;;;17.52;7.40;;;;;;;;;;4927727;28;101861;-81
2023/04/29 02:51:02;;;;;;;18.20;7.65;;;;;;;;;;4943032;28;100656;-82
2023/04/29 02:53:28;;;;;;;15.15;6.32;;;;;;;;;;4946405;28;97868;-81
2023/04/29 02:55:55;;;;;;;15.63;7.97;;;;;;;;;;4911578;28;102055;-80
2023/04/29 02:58:22;;;;;;;15.32;7.03;;;;;;;;;;4941430;28;99190;-80
2023/04/29 03:00:49;;;;;;;13.77;7.03;;;;;;;;;;4941932;28;101292;-81
2023/04/29 03:03:16;;;;;;;11.88;6.10;;;;;;;;;;4941593;28;102675;-80
2023/04/29 03:05:43;;;;;;;12.93;6.28;;;;;;;;;;4941825;28;98949;-79
2023/04/29 03:08:10;;;;;;;13.48;6.05;;;;;;;;;;4941755;28;100482;-79
2023/04/29 03:10:36;;;;;;;15.13;6.63;;;;;;;;;;4940600;28;102187;-80
2023/04/29 03:13:06;;;;;;;14.55;6.20;;;;;;;;;;4942580;28;98999;-80
2023/04/29 03:15:33;;;;;;;16.02;6.32;;;;;;;;;;4928441;28;101603;-80
2023/04/29 03:18:00;;;;;;;14.38;6.40;;;;;;;;;;4934379;28;97858;-80
2023/04/29 03:20:28;;;;;;;15.20;6.60;;;;;;;;;;4943025;28;98792;-81
2023/04/29 03:22:54;;;;;;;;;;;;;;;;;;4928766;28;98934;-80
2023/04/29 03:25:21;;;;;;;11.18;5.80;;;;;;;;;;4944390;28;108190;-81
2023/04/29 03:27:49;;;;;;;12.52;5.60;;;;;;;;;;4943113;28;101947;-81
2023/04/29 03:30:16;;;;;;;12.27;6.18;;;;;;;;;;4941148;28;100673;-80
2023/04/29 03:32:47;;;;;;;12.93;5.57;;;;;;;;;;4942769;28;99062;-81
2023/04/29 03:35:14;;;;;;;14.10;5.90;;;;;;;;;;4943621;28;101451;-81
2023/04/29 03:38:01;;;;;;;13.63;5.88;;;;;;;;;;4910115;28;99098;-81
2023/04/29 03:40:31;;;;;;;11.98;5.75;;;;;;;;;;4925396;28;101787;-81
2023/04/29 03:42:57;;;;;;;13.18;6.00;;;;;;;;;;4942346;28;100987;-80
2023/04/29 03:45:24;;;;;;;14.02;6.50;;;;;;;;;;4943061;28;98642;-80
2023/04/29 03:47:52;;;;;;;12.23;5.85;;;;;;;;;;4941886;28;101582;-80
2023/04/29 03:50:18;;;;;;;12.85;5.70;;;;;;;;;;4940942;28;99860;-80
2023/04/29 03:52:46;;;;;;;13.02;6.10;;;;;;;;;;4925755;28;99600;-80
2023/04/29 03:55:14;;;;;;;12.95;6.25;;;;;;;;;;4909669;28;101558;-80
2023/04/29 03:57:42;;;;;;;13.18;6.40;;;;;;;;;;4941492;28;102504;-80
2023/04/29 04:00:10;;;;;;;;;;;;;;;;;;4929724;28;99099;-80
2023/04/29 04:02:42;;;;;;;;;;;;;;;;;;4926449;28;104835;-80
2023/04/29 04:05:09;;;;;;;13.10;6.35;;;;;;;;;;4942562;28;99129;-80
2023/04/29 04:07:39;;;;;;;14.10;6.57;;;;;;;;;;4942666;28;101516;-80
2023/04/29 04:10:24;;;;;;;13.70;6.80;;;;;;;;;;4943007;28;98870;-80
2023/04/29 04:12:51;;;;;;;12.05;6.22;;;;;;;;;;4952470;28;99044;-79
2023/04/29 04:15:17;;;;;;;14.55;6.63;;;;;;;;;;4942474;28;101622;-79
2023/04/29 04:17:44;;;;;;;15.80;7.18;;;;;;;;;;4943057;28;102727;-81
2023/04/29 04:20:10;;;;;;;14.85;6.78;;;;;;;;;;4929681;28;99096;-80
2023/04/29 04:22:37;;;;;;;13.60;7.07;;;;;;;;;;4942173;28;101588;-82
2023/04/29 04:25:15;;;;;;;14.13;6.78;;;;;;;;;;4926864;28;101088;-80
2023/04/29 04:27:41;;;;;;;15.85;6.97;;;;;;;;;;4941815;28;101722;-81
2023/04/29 04:30:13;;;;;;;13.85;6.78;;;;;;;;;;4944316;28;100311;-82
2023/04/29 04:32:40;;;;;;;17.85;8.02;;;;;;;;;;4951388;28;97822;-82
2023/04/29 04:35:07;;;;;;;12.20;6.07;;;;;;;;;;4929553;28;99098;-81
2023/04/29 04:37:33;;;;;;;14.45;6.85;;;;;;;;;;4958399;28;101811;-81
2023/04/29 04:40:00;;;;;;;13.48;6.70;;;;;;;;;;4944040;28;99512;-81
2023/04/29 04:42:28;;;;;;;13.10;6.65;;;;;;;;;;4946291;28;101007;-81
2023/04/29 04:44:56;;;;;;;13.20;7.25;;;;;;;;;;4943582;28;98925;-81
2023/04/29 04:47:32;;;;;;;12.18;5.93;;;;;;;;;;4943677;28;101220;-81
2023/04/29 04:50:03;;;;;;;12.13;6.03;;;;;;;;;;4943014;28;101540;-81
2023/04/29 04:52:30;;;;;;;14.75;6.60;;;;;;;;;;4943150;28;99433;-83
2023/04/29 04:55:16;;;;;;;13.20;6.03;;;;;;;;;;4930611;28;99969;-81
2023/04/29 04:57:45;;;;;;;11.02;5.53;;;;;;;;;;4944054;28;100489;-81
2023/04/29 05:00:12;;;;;;;14.55;6.40;;;;;;;;;;4927575;28;98694;-84
2023/04/29 05:02:38;;;;;;;12.18;5.75;;;;;;;;;;4934863;28;101155;-83
2023/04/29 05:05:05;;;;;;;12.15;5.30;;;;;;;;;;4946637;28;100921;-82
2023/04/29 05:07:34;;;;;;;11.95;6.05;;;;;;;;;;4944787;28;102111;-81
2023/04/29 05:10:05;;;;;;;11.43;5.30;;;;;;;;;;4943323;28;101913;-82
2023/04/29 05:12:36;;;;;;;11.82;5.38;;;;;;;;;;4950171;28;98710;-81
2023/04/29 05:15:05;;;;;;;12.13;5.97;;;;;;;;;;4911300;28;99870;-82
2023/04/29 05:17:33;;;;;;;9.80;5.18;;;;;;;;;;4943989;28;101393;-82
2023/04/29 05:20:00;;;;;;;13.93;5.95;;;;;;;;;;4944463;28;98972;-80
2023/04/29 05:22:27;;;;;;;11.48;5.80;;;;;;;;;;4927043;28;100004;-80
2023/04/29 05:24:59;;;;;;;14.07;5.57;;;;;;;;;;4942449;28;105680;-80
2023/04/29 05:27:25;;;;;;;13.63;5.75;;;;;;;;;;4947823;28;98638;-79
2023/04/29 05:29:52;;;;;;;10.70;5.18;;;;;;;;;;4940715;28;102269;-80
2023/04/29 05:32:19;;;;;;;13.07;5.75;;;;;;;;;;4942669;28;99567;-80
2023/04/29 05:34:45;;;;;;;10.57;4.93;;;;;;;;;;4933864;28;99650;-80
2023/04/29 05:37:12;;;;;;;10.40;5.00;;;;;;;;;;4931112;28;99339;-80
2023/04/29 05:39:56;;;;;;;11.45;5.68;;;;;;;;;;4936875;28;99377;-80
2023/04/29 05:42:23;;;;;;;11.50;5.65;;;;;;;;;;4939704;28;101856;-81
2023/04/29 05:44:50;;;;;;;11.05;5.60;;;;;;;;;;4946837;28;101404;-80
2023/04/29 05:47:16;;;;;;;11.48;5.60;;;;;;;;;;4953227;28;97840;-80
2023/04/29 05:49:43;;;;;;;10.20;4.93;;;;;;;;;;4954939;28;101246;-82
2023/04/29 05:52:09;;;;;;;11.43;5.30;;;;;;;;;;4954427;28;98731;-81
2023/04/29 05:54:42;;;;;;;11.52;5.22;;;;;;;;;;4921263;28;105780;-81
2023/04/29 05:57:08;;;;;;;10.60;5.30;;;;;;;;;;4937523;28;98999;-81
2023/04/29 05:59:35;;;;;;;12.65;5.50;;;;;;;;;;4949024;28;98605;-82
2023/04/29 06:02:03;;;;;;;13.38;5.50;;;;;;;;;;4929232;28;100491;-82
2023/04/29 06:04:30;;;;;;;11.38;5.63;;;;;;;;;;4945053;28;100017;-81
2023/04/29 06:07:16;;;;;;;;;;;;;;;;;;4930531;28;99237;-81
2023/04/29 06:09:59;;;;;;;12.75;5.65;;;;;;;;;;4946426;28;99210;-81
2023/04/29 06:12:27;;;;;;;11.93;5.30;;;;;;;;;;4945188;28;101164;-81
2023/04/29 06:14:54;;;;;;;10.55;5.03;;;;;;;;;;4942354;28;99443;-81
2023/04/29 06:17:20;;;;;;;11.25;4.95;;;;;;;;;;4921025;28;101821;-81
2023/04/29 06:19:47;;;;;;;11.13;4.97;;;;;;;;;;4936729;28;99298;-81
2023/04/29 06:22:13;;;;;;;13.02;5.70;;;;;;;;;;4944300;28;99604;-81
2023/04/29 06:24:48;;;;;;;13.23;6.43;;;;;;;;;;4926069;28;105787;-80
2023/04/29 06:27:23;;;;;;;14.82;6.80;;;;;;;;;;4942696;28;99422;-81
2023/04/29 06:29:49;;;;;;;12.45;5.68;;;;;;;;;;4942528;28;102023;-80
2023/04/29 06:32:16;;;;;;;13.18;6.32;;;;;;;;;;4945687;28;99737;-80
2023/04/29 06:34:45;;;;;;;12.40;6.40;;;;;;;;;;4926142;28;99956;-80
2023/04/29 06:37:34;;;;;;;14.05;6.00;;;;;;;;;;4938821;28;99303;-80
2023/04/29 06:40:27;;;;;;;12.10;5.85;;;;;;;;;;4941297;28;99360;-79
2023/04/29 06:43:07;;;;;;;14.05;6.20;;;;;;;;;;4943264;28;102105;-79
2023/04/29 06:45:52;;;;;;;12.85;6.00;;;;;;;;;;4942118;28;99540;-79
2023/04/29 06:48:21;;;;;;;10.68;5.43;;;;;;;;;;4942926;28;100263;-78
2023/04/29 06:50:51;;;;;;;11.18;5.53;;;;;;;;;;4944051;28;101902;-80
2023/04/29 06:53:18;;;;;;;13.52;5.38;;;;;;;;;;4941972;28;100166;-79
2023/04/29 06:55:47;;;;;;;12.57;5.63;;;;;;;;;;4947665;28;98521;-79
2023/04/29 06:58:14;;;;;;;14.38;5.93;;;;;;;;;;4942972;28;99143;-78
2023/04/29 07:00:50;;;;;;;12.60;5.22;;;;;;;;;;4926277;28;99011;-79
2023/04/29 07:03:17;;;;;;;14.48;6.10;;;;;;;;;;4945513;28;99108;-80
2023/04/29 07:05:44;;;;;;;14.27;6.53;;;;;;;;;;4941683;28;100078;-79
2023/04/29 07:08:12;;;;;;;18.63;5.05;;;;;;;;;;4936343;28;99025;-79
2023/04/29 07:10:39;;;;;;;10.95;4.20;;;;;;;;;;4940392;28;99847;-79
2023/04/29 07:13:05;;;;;;;12.73;4.22;;;;;;;;;;4924785;28;100703;-79
2023/04/29 07:15:35;;;;;;;12.27;4.28;;;;;;;;;;4943103;28;98631;-80
2023/04/29 07:18:02;;;;;;;10.07;4.20;;;;;;;;;;4928263;28;101453;-79
2023/04/29 07:20:29;;;;;;;11.85;5.07;;;;;;;;;;4939881;28;99936;-79
2023/04/29 07:22:56;;;;;;;7.85;3.72;;;;;;;;;;4942241;28;98947;-77
2023/04/29 07:25:23;;;;;;;18.40;4.50;;;;;;;;;;4937667;28;101688;-80
2023/04/29 07:27:50;;;;;;;10.63;4.25;;;;;;;;;;4939803;28;99912;-81
2023/04/29 07:30:17;;;;;;;10.80;4.65;;;;;;;;;;4934790;28;101172;-80
2023/04/29 07:32:43;;;;;;;11.20;3.97;;;;;;;;;;4926235;28;102052;-81
2023/04/29 07:35:10;;;;;;;7.68;3.60;;;;;;;;;;4942096;28;99509;-80
2023/04/29 07:37:37;;;;;;;7.15;2.67;;;;;;;;;;4941540;28;99615;-80
2023/04/29 07:40:04;;;;;;;8.65;4.30;;;;;;;;;;4943405;28;105596;-82
2023/04/29 07:42:31;;;;;;;;;;;;;;;;;;4940872;28;101721;-85
2023/04/29 07:44:58;;;;;;;9.25;3.22;;;;;;;;;;4941721;28;101885;-83
2023/04/29 07:47:24;;;;;;;9.02;2.80;;;;;;;;;;4924969;28;99108;-81
2023/04/29 07:49:51;;;;;;;6.75;2.58;;;;;;;;;;4931287;28;101509;-81
2023/04/29 07:52:18;;;;;;;9.20;3.95;;;;;;;;;;4941985;28;99561;-82
2023/04/29 07:54:47;;;;;;;10.50;2.90;;;;;;;;;;4943426;28;98951;-85
2023/04/29 07:57:14;;;;;;;6.65;3.08;;;;;;;;;;4944861;28;99128;-82
2023/04/29 07:59:41;;;;;;;7.65;3.30;;;;;;;;;;4929776;28;102377;-82
2023/04/29 08:02:07;;;;;;;8.38;3.30;;;;;;;;;;4956222;28;98494;-83
2023/04/29 08:04:37;;;;;;;9.35;3.50;;;;;;;;;;4958519;28;101566;-82
2023/04/29 08:07:08;;;;;;;8.32;3.00;;;;;;;;;;4951732;28;99038;-82
2023/04/29 08:09:35;;;;;;;5.50;2.50;;;;;;;;;;4935632;28;102662;-82
2023/04/29 08:12:02;;;;;;;5.47;2.65;;;;;;;;;;4945115;28;101110;-81
2023/04/29 08:14:29;;;;;;;9.48;3.75;;;;;;;;;;4947110;28;98969;-84
2023/04/29 08:16:57;;;;;;;8.10;3.40;;;;;;;;;;4942967;28;99492;-86
2023/04/29 08:19:23;;;;;;;7.93;2.92;;;;;;;;;;4942914;28;100837;-83
2023/04/29 08:21:50;;;;;;;7.10;2.38;;;;;;;;;;4964067;28;98729;-87
2023/04/29 08:24:17;;;;;;;10.50;4.30;;;;;;;;;;4959983;28;101717;-80
2023/04/29 08:26:44;;;;;;;10.27;4.38;;;;;;;;;;4948877;28;105600;-81
2023/04/29 08:29:10;;;;;;;7.75;2.80;;;;;;;;;;4944287;28;98909;-80
2023/04/29 08:31:37;;;;;;;8.07;3.20;;;;;;;;;;4943980;28;99979;-82
2023/04/29 08:34:03;;;;;;;5.60;2.10;;;;;;;;;;4945435;28;98806;-82
2023/04/29 08:36:30;;;;;;;8.07;3.20;;;;;;;;;;4948359;28;99110;-81
2023/04/29 08:38:56;;;;;;;9.77;3.78;;;;;;;;;;4927025;28;99175;-81
2023/04/29 08:41:24;;;;;;;6.93;2.75;;;;;;;;;;4942105;28;98218;-81
2023/04/29 08:43:50;;;;;;;6.78;2.47;;;;;;;;;;4938601;28;99159;-81
2023/04/29 08:46:17;;;;;;;7.15;3.00;;;;;;;;;;4944297;28;98953;-80
2023/04/29 08:48:44;;;;;;;9.45;4.28;;;;;;;;;;4927609;28;106855;-82
2023/04/29 08:51:12;;;;;;;6.00;2.00;;;;;;;;;;4926992;28;102082;-80
2023/04/29 08:53:39;;;;;;;8.35;3.50;;;;;;;;;;4939876;28;98850;-81
2023/04/29 08:56:12;;;;;;;6.55;2.15;;;;;;;;;;4943886;28;98953;-81
2023/04/29 08:58:38;;;;;;;;;;;;;;;;;;4944577;28;99210;-82
2023/04/29 09:01:07;;;;;;;6.55;2.83;;;;;;;;;;4946306;28;104960;-81
2023/04/29 09:03:36;;;;;;;6.05;2.10;;;;;;;;;;4944637;28;98858;-81
2023/04/29 09:06:04;;;;;;;5.32;1.90;;;;;;;;;;4930229;28;101312;-81
2023/04/29 09:08:31;;;;;;;6.07;2.10;;;;;;;;;;4943980;28;99579;-80
2023/04/29 09:10:58;;;;;;;;;;;;;;;;;;4943040;28;100091;-82
2023/04/29 09:13:31;;;;;;;7.25;2.92;;;;;;;;;;4946346;28;99866;-83
2023/04/29 09:15:57;;;;;;;6.40;2.20;;;;;;;;;;4945129;28;99681;-82
2023/04/29 09:18:43;;;;;;;9.00;3.22;;;;;;;;;;4943007;28;100100;-80
2023/04/29 09:21:20;;;;;;;8.43;2.58;;;;;;;;;;4945567;28;99333;-78
2023/04/29 09:23:49;;;;;;;4.97;2.17;;;;;;;;;;4945403;28;99573;-79
2023/04/29 09:26:16;;;;;;;8.18;3.13;;;;;;;;;;4944493;28;99622;-79
2023/04/29 09:28:43;;;;;;;6.93;2.83;;;;;;;;;;4949494;28;98970;-80
2023/04/29 09:31:11;;;;;;;5.38;1.90;;;;;;;;;;4947047;28;98463;-80
2023/04/29 09:33:37;;;;;;;;;;;;;;;;;;4947563;28;98667;-80
2023/04/29 09:36:04;;;;;;;4.00;1.67;;;;;;;;;;4952114;28;118522;-80
2023/04/29 09:38:30;;;;;;;4.82;2.13;;;;;;;;;;4945800;28;99958;-79
2023/04/29 09:40:57;;;;;;;12.07;4.40;;;;;;;;;;4944835;28;98642;-79
2023/04/29 09:43:27;;;;;;;10.20;3.92;;;;;;;;;;4947328;28;98975;-81
2023/04/29 09:45:54;;;;;;;8.55;3.08;;;;;;;;;;4944625;28;102160;-80
2023/04/29 09:48:21;;;;;;;6.10;1.90;;;;;;;;;;4945798;28;99083;-80
2023/04/29 09:50:58;;;;;;;5.43;1.85;;;;;;;;;;4952728;28;100139;-84
2023/04/29 09:53:28;;;;;;;6.60;1.65;;;;;;;;;;4946113;28;98660;-82
2023/04/29 09:56:01;;;;;;;5.18;1.50;;;;;;;;;;4947030;28;98911;-86
2023/04/29 09:58:29;;;;;;;5.18;1.60;;;;;;;;;;4941997;28;101765;-80
2023/04/29 10:01:01;;;;;;;3.03;1.30;;;;;;;;;;4944768;28;98803;-82
2023/04/29 10:03:37;;;;;;;6.30;1.60;;;;;;;;;;4942246;28;99720;-82
2023/04/29 10:06:05;;;;;;;2.95;1.33;;;;;;;;;;4943955;28;100851;-82
2023/04/29 10:08:32;;;;;;;3.72;1.30;;;;;;;;;;4942365;28;99075;-81
2023/04/29 10:11:02;;;;;;;2.20;1.30;;;;;;;;;;4943822;28;102360;-82
2023/04/29 10:13:29;;;;;;;3.35;1.27;;;;;;;;;;4947714;28;106166;-82
2023/04/29 10:15:56;;;;;;;;;;;;;;;;;;4943708;28;100942;-83
2023/04/29 10:18:27;;;;;;;2.55;1.10;;;;;;;;;;4946087;28;117826;-81
2023/04/29 10:20:55;;;;;;;4.93;1.20;;;;;;;;;;4946660;28;97971;-85
2023/04/29 10:23:23;;;;;;;5.03;1.40;;;;;;;;;;4944370;28;100115;-81
2023/04/29 10:25:51;;;;;;;4.53;1.40;;;;;;;;;;4933287;28;100885;-82
2023/04/29 10:28:19;;;;;;;2.75;1.27;;;;;;;;;;4942553;28;99469;-79
2023/04/29 10:30:49;;;;;;;5.70;1.40;;;;;;;;;;4944254;28;101104;-80
2023/04/29 10:33:16;;;;;;;3.10;1.25;;;;;;;;;;4943612;28;99695;-80
2023/04/29 10:35:43;;;;;;;2.80;1.17;;;;;;;;;;4944410;28;98661;-81
2023/04/29 10:38:14;;;;;;;3.33;1.10;;;;;;;;;;4943216;28;99808;-81
2023/04/29 10:40:55;;;;;;;3.97;1.42;;;;;;;;;;4941085;28;98876;-81
2023/04/29 10:43:22;;;;;;;3.65;1.15;;;;;;;;;;4944383;28;98936;-81
2023/04/29 10:45:49;;;;;;;3.72;1.40;;;;;;;;;;4949790;28;98454;-82
2023/04/29 10:48:17;;;;;;;2.88;1.20;;;;;;;;;;4941880;28;98522;-82
2023/04/29 10:50:47;;;;;;;4.28;1.30;;;;;;;;;;4942975;28;100093;-82
2023/04/29 10:53:14;;;;;;;3.25;1.30;;;;;;;;;;4941357;28;99852;-83
2023/04/29 10:55:41;;;;;;;2.67;1.08;;;;;;;;;;4945999;28;98911;-83
2023/04/29 10:58:27;;;;;;;2.30;1.00;;;;;;;;;;4934528;28;99024;-82
2023/04/29 11:00:53;;;;;;;3.97;1.10;;;;;;;;;;4932581;28;98829;-81
2023/04/29 11:03:39;;;;;;;2.92;1.30;;;;;;;;;;4943225;28;98971;-81
2023/04/29 11:06:09;;;;;;;1.95;1.00;;;;;;;;;;4943243;28;99246;-82
2023/04/29 11:08:38;;;;;;;2.90;1.10;;;;;;;;;;4942200;28;98867;-81
2023/04/29 11:11:08;;;;;;;2.13;1.20;;;;;;;;;;4944207;28;98949;-80
2023/04/29 11:13:38;;;;;;;2.58;1.13;;;;;;;;;;4939374;28;100003;-79
2023/04/29 11:16:05;;;;;;;3.45;1.10;;;;;;;;;;4940729;28;98598;-79
2023/04/29 11:18:33;;;;;;;3.22;1.20;;;;;;;;;;4927998;28;102179;-79
2023/04/29 11:21:03;;;;;;;4.75;1.30;;;;;;;;;;4941008;28;99859;-80
2023/04/29 11:23:30;;;;;;;2.45;1.05;;;;;;;;;;4937965;28;99817;-79
2023/04/29 11:25:57;;;;;;;3.25;1.20;;;;;;;;;;4931549;28;100177;-79
2023/04/29 11:28:23;;;;;;;2.92;1.10;;;;;;;;;;4940186;28;99273;-79
2023/04/29 11:30:50;;;;;;;2.67;1.20;;;;;;;;;;4942467;28;98909;-80
2023/04/29 11:33:18;;;;;;;3.30;1.30;;;;;;;;;;4941593;28;102077;-80
2023/04/29 11:35:46;;;;;;;3.60;1.20;;;;;;;;;;4943102;28;99203;-80
2023/04/29 11:38:12;;;;;;;2.85;1.25;;;;;;;;;;4940704;28;98920;-79
2023/04/29 11:40:49;;;;;;;2.35;1.00;;;;;;;;;;4943744;28;105609;-79
2023/04/29 11:43:16;;;;;;;2.67;1.23;;;;;;;;;;4935640;28;100115;-80
2023/04/29 11:45:46;;;;;;;2.80;1.20;;;;;;;;;;4941195;28;98992;-80
2023/04/29 11:48:23;;;;;;;5.25;1.50;;;;;;;;;;4943157;28;99066;-80
2023/04/29 11:50:53;;;;;;;2.10;1.10;;;;;;;;;;4922501;28;103496;-80
2023/04/29 11:53:20;;;;;;;2.33;1.20;;;;;;;;;;4941129;28;99153;-80
2023/04/29 11:55:47;;;;;;;2.95;1.30;;;;;;;;;;4941662;28;98896;-80
2023/04/29 11:58:14;;;;;;;2.10;1.08;;;;;;;;;;4941197;28;101996;-81
2023/04/29 12:00:41;;;;;;;3.15;1.30;;;;;;;;;;4943113;28;103395;-81
2023/04/29 12:03:14;;;;;;;4.57;1.38;;;;;;;;;;4945642;28;98798;-82
2023/04/29 12:05:51;;;;;;;4.18;1.40;;;;;;;;;;4931767;28;99177;-82
2023/04/29 12:08:28;;;;;;;2.70;1.30;;;;;;;;;;4941885;28;99675;-80
2023/04/29 12:10:56;;;;;;;7.93;1.80;;;;;;;;;;4939049;28;99731;-80
2023/04/29 12:13:23;;;;;;;11.73;1.60;;;;;;;;;;4940203;28;100416;-81
2023/04/29 12:15:51;;;;;;;6.00;1.40;;;;;;;;;;4946401;28;99011;-81
2023/04/29 12:18:18;;;;;;;4.80;1.30;;;;;;;;;;4943267;28;98807;-79
2023/04/29 12:20:47;;;;;;;3.97;1.30;;;;;;;;;;4943682;28;99152;-80
2023/04/29 12:23:14;;;;;;;5.00;1.40;;;;;;;;;;4942937;28;98864;-79
2023/04/29 12:25:41;;;;;;;5.13;1.38;;;;;;;;;;4946576;28;98916;-78
2023/04/29 12:28:11;;;;;;;3.78;1.13;;;;;;;;;;4942462;28;98797;-78
2023/04/29 12:30:38;;;;;;;3.15;1.23;;;;;;;;;;4941548;28;99116;-79
2023/04/29 12:33:07;;;;;;;3.40;1.20;;;;;;;;;;4941775;28;100757;-79
2023/04/29 12:35:35;;;;;;;2.70;1.20;;;;;;;;;;4926217;28;99734;-80
2023/04/29 12:38:01;;;;;;;4.25;1.25;;;;;;;;;;4944497;28;98908;-79
2023/04/29 12:40:28;;;;;;;3.30;1.27;;;;;;;;;;4944655;28;99245;-78
2023/04/29 12:42:55;;;;;;;5.05;1.40;;;;;;;;;;4946019;28;98927;-79
2023/04/29 12:45:31;;;;;;;3.95;1.38;;;;;;;;;;4947769;28;98827;-79
2023/04/29 12:47:58;;;;;;;4.70;1.20;;;;;;;;;;4925980;28;98905;-79
2023/04/29 12:50:25;;;;;;;;;;;;;;;;;;4944874;28;98751;-79
2023/04/29 12:52:51;;;;;;;3.80;1.20;;;;;;;;;;4946381;28;117672;-79
2023/04/29 12:55:18;;;;;;;3.10;1.23;;;;;;;;;;4928828;28;99788;-79
2023/04/29 12:57:45;;;;;;;2.53;1.20;;;;;;;;;;4947316;28;99336;-79
2023/04/29 13:00:13;;;;;;;3.53;1.20;;;;;;;;;;4945282;28;102376;-79
2023/04/29 13:02:40;;;;;;;3.60;1.30;;;;;;;;;;4933512;28;98731;-79
2023/04/29 13:05:07;;;;;;;3.50;1.30;;;;;;;;;;4946057;28;99211;-79
2023/04/29 13:07:34;;;;;;;2.67;1.30;;;;;;;;;;4952195;28;101794;-79
2023/04/29 13:10:05;;;;;;;2.20;1.17;;;;;;;;;;4950120;28;99296;-79
2023/04/29 13:12:31;;;;;;;2.33;1.10;;;;;;;;;;4944460;28;102210;-79
2023/04/29 13:14:58;;;;;;;3.65;1.30;;;;;;;;;;4947308;28;97763;-79
2023/04/29 13:17:25;;;;;;;3.53;1.33;;;;;;;;;;4947548;28;98772;-79
2023/04/29 13:19:51;;;;;;;2.42;1.33;;;;;;;;;;4946051;28;99476;-80
2023/04/29 13:22:18;;;;;;;3.85;1.20;;;;;;;;;;4942885;28;99633;-80
2023/04/29 13:24:45;;;;;;;3.38;1.30;;;;;;;;;;4944854;28;102685;-80
2023/04/29 13:27:12;;;;;;;3.78;1.08;;;;;;;;;;4943887;28;101352;-80
2023/04/29 13:29:39;;;;;;;2.00;1.00;;;;;;;;;;4948247;28;98630;-77
2023/04/29 13:32:07;;;;;;;2.22;1.10;;;;;;;;;;4945771;28;98971;-80
2023/04/29 13:34:35;;;;;;;2.45;1.27;;;;;;;;;;4942771;28;99612;-79
2023/04/29 13:37:02;;;;;;;3.25;1.17;;;;;;;;;;4945337;28;99137;-80
2023/04/29 13:39:28;;;;;;;3.35;1.20;;;;;;;;;;4944834;28;98399;-81
2023/04/29 13:41:55;;;;;;;3.95;1.30;;;;;;;;;;4945068;28;99133;-79
2023/04/29 13:44:24;;;;;;;2.83;1.20;;;;;;;;;;4939832;28;98684;-80
2023/04/29 13:47:11;;;;;;;2.35;1.17;;;;;;;;;;4944481;28;99912;-80
2023/04/29 13:49:38;;;;;;;1.92;1.10;;;;;;;;;;4943936;28;98649;-79
2023/04/29 13:52:08;;;;;;;2.60;1.10;;;;;;;;;;4946988;28;99963;-80
2023/04/29 13:54:37;;;;;;;1.67;1.10;;;;;;;;;;4943656;28;99274;-80
2023/04/29 13:57:26;;;;;;;1.08;0.90;;;;;;;;;;4935542;28;99070;-80
2023/04/29 14:00:13;;;;;;;2.20;1.20;;;;;;;;;;4944195;28;99144;-80
2023/04/29 14:03:02;;;;;;;2.78;1.23;;;;;;;;;;4944158;28;98583;-79
2023/04/29 14:05:28;;;;;;;1.77;1.15;;;;;;;;;;4943915;28;98718;-79
2023/04/29 14:07:55;;;;;;;1.70;1.08;;;;;;;;;;4943893;28;99219;-79
2023/04/29 14:10:22;;;;;;;1.73;1.05;;;;;;;;;;4942428;28;99021;-78
2023/04/29 14:12:49;;;;;;;2.35;1.20;;;;;;;;;;4957394;28;102546;-79
2023/04/29 14:15:15;;;;;;;2.60;1.30;;;;;;;;;;4948560;28;101366;-80
2023/04/29 14:17:42;;;;;;;2.70;1.17;;;;;;;;;;4944312;28;98778;-80
2023/04/29 14:20:09;;;;;;;2.15;1.20;;;;;;;;;;4942402;28;100719;-80
2023/04/29 14:22:35;;;;;;;3.08;1.30;;;;;;;;;;4943869;28;99175;-79
2023/04/29 14:25:02;;;;;;;2.65;1.20;;;;;;;;;;4944349;28;99361;-79
2023/04/29 14:27:28;;;;;;;2.58;1.10;;;;;;;;;;4948871;28;99152;-79
2023/04/29 14:29:55;;;;;;;2.28;1.20;;;;;;;;;;4953575;28;98621;-79
2023/04/29 14:32:21;;;;;;;2.15;1.10;;;;;;;;;;4943753;28;99133;-81
2023/04/29 14:34:48;;;;;;;1.92;1.10;;;;;;;;;;4942500;28;100431;-81
2023/04/29 14:37:14;;;;;;;3.08;1.30;;;;;;;;;;4953656;28;99326;-79
2023/04/29 14:39:41;;;;;;;3.40;1.20;;;;;;;;;;4943260;28;99765;-80
2023/04/29 14:42:07;;;;;;;3.95;1.42;;;;;;;;;;4933520;28;99025;-78
2023/04/29 14:44:34;;;;;;;2.55;1.20;;;;;;;;;;4945172;28;101728;-79